createdAt,value
2023-01-18T00:02:46.904Z,9.37
2023-01-18T00:08:50.295Z,9.47
2023-01-18T00:14:55.074Z,8.23
2023-01-18T00:21:01.613Z,9.50
2023-01-18T00:27:05.013Z,7.77
2023-01-18T00:33:11.200Z,9.10
2023-01-18T00:39:15.919Z,7.50
2023-01-18T00:45:19.650Z,7.33
2023-01-18T00:51:25.860Z,7.13
2023-01-18T00:57:29.225Z,6.60
2023-01-18T01:03:53.345Z,6.97
2023-01-18T01:09:58.227Z,6.07
2023-01-18T01:16:23.464Z,5.53
2023-01-18T01:22:44.335Z,5.80
2023-01-18T01:28:53.987Z,5.40
2023-01-18T01:34:57.398Z,5.47
2023-01-18T01:41:01.486Z,4.90
2023-01-18T01:47:06.990Z,4.67
2023-01-18T01:53:11.568Z,4.60
2023-01-18T01:59:15.810Z,4.87
2023-01-18T02:05:21.099Z,5.40
2023-01-18T02:11:24.496Z,5.20
2023-01-18T02:17:38.892Z,5.47
2023-01-18T02:23:59.867Z,5.27
2023-01-18T02:30:16.051Z,5.70
2023-01-18T02:36:24.408Z,5.27
2023-01-18T02:42:47.184Z,5.93
2023-01-18T02:48:52.366Z,5.90
2023-01-18T02:54:55.869Z,5.70
2023-01-18T03:01:01.740Z,10.30
2023-01-18T03:07:09.977Z,13.43
2023-01-18T03:13:16.866Z,5.90
2023-01-18T03:19:39.866Z,6.20
2023-01-18T03:25:46.769Z,5.97
2023-01-18T03:32:08.953Z,6.00
2023-01-18T03:38:12.650Z,5.40
2023-01-18T03:44:19.078Z,5.50
2023-01-18T03:50:26.248Z,5.83
2023-01-18T03:56:34.224Z,5.93
2023-01-18T04:02:39.499Z,5.53
2023-01-18T04:08:42.979Z,5.60
2023-01-18T04:14:46.404Z,5.60
2023-01-18T04:20:56.313Z,5.37
2023-01-18T04:26:59.833Z,5.60
2023-01-18T04:33:03.498Z,6.40
2023-01-18T04:39:08.280Z,5.83
2023-01-18T04:45:14.247Z,5.83
2023-01-18T04:51:17.721Z,6.70
2023-01-18T04:57:22.507Z,5.40
2023-01-18T05:03:25.936Z,5.67
2023-01-18T05:09:29.371Z,6.47
2023-01-18T05:15:34.980Z,6.43
2023-01-18T05:21:38.658Z,6.00
2023-01-18T05:27:42.092Z,6.00
2023-01-18T05:33:46.833Z,5.70
2023-01-18T05:39:50.246Z,5.67
2023-01-18T05:45:53.692Z,5.37
2023-01-18T05:51:58.596Z,4.77
2023-01-18T05:58:01.979Z,5.73
2023-01-18T06:04:05.667Z,4.77
2023-01-18T06:10:11.686Z,8.00
2023-01-18T06:16:15.238Z,9.33
2023-01-18T06:22:18.698Z,5.03
2023-01-18T06:28:23.737Z,4.00
2023-01-18T06:34:29.560Z,4.73
2023-01-18T06:40:33.772Z,4.40
2023-01-18T06:46:38.768Z,3.93
2023-01-18T06:52:42.795Z,4.20
2023-01-18T06:58:46.181Z,4.77
2023-01-18T07:04:50.995Z,6.20
2023-01-18T07:10:55.001Z,7.88
2023-01-18T07:16:58.985Z,8.38
2023-01-18T07:23:04.987Z,5.60
2023-01-18T07:29:09.118Z,7.30
2023-01-18T07:35:12.479Z,9.07
2023-01-18T07:41:17.862Z,7.75
2023-01-18T07:47:21.264Z,5.68
2023-01-18T07:53:24.830Z,6.73
2023-01-18T07:59:30.999Z,6.47
2023-01-18T08:05:34.667Z,6.57
2023-01-18T08:11:38.397Z,6.10
2023-01-18T08:17:43.494Z,7.07
2023-01-18T08:23:46.895Z,7.63
2023-01-18T08:29:50.563Z,6.50
2023-01-18T08:35:55.379Z,5.77
2023-01-18T08:41:59.143Z,6.57
2023-01-18T08:48:03.516Z,7.03
2023-01-18T08:54:08.310Z,7.63
2023-01-18T09:00:13.111Z,7.53
2023-01-18T09:06:16.812Z,8.07
2023-01-18T09:12:21.698Z,8.57
2023-01-18T09:18:25.084Z,6.97
2023-01-18T09:24:28.755Z,10.90
2023-01-18T09:30:33.523Z,7.03
2023-01-18T09:36:36.932Z,7.40
2023-01-18T09:42:44.541Z,7.13
2023-01-18T09:48:51.317Z,7.38
2023-01-18T09:54:58.048Z,6.47
2023-01-18T10:01:04.318Z,6.87
2023-01-18T10:07:12.090Z,6.50
2023-01-18T10:13:33.087Z,4.88
2023-01-18T10:19:36.501Z,3.85
2023-01-18T10:25:43.296Z,8.52
2023-01-18T10:31:50.700Z,6.43
2023-01-18T10:37:54.231Z,5.00
2023-01-18T10:43:59.107Z,5.45
2023-01-18T10:50:14.139Z,4.78
2023-01-18T10:56:19.305Z,4.80
2023-01-18T11:02:27.504Z,6.30
2023-01-18T11:08:31.788Z,4.82
2023-01-18T11:14:35.500Z,6.50
2023-01-18T11:20:44.585Z,5.68
2023-01-18T11:26:56.504Z,5.93
2023-01-18T11:33:01.111Z,6.22
2023-01-18T11:39:19.483Z,5.85
2023-01-18T11:45:27.114Z,5.13
2023-01-18T11:51:33.765Z,7.10
2023-01-18T11:57:37.292Z,5.55
2023-01-18T12:03:57.112Z,4.93
2023-01-18T12:10:02.584Z,5.00
2023-01-18T12:16:13.078Z,4.50
2023-01-18T12:22:29.663Z,4.43
2023-01-18T12:28:39.774Z,4.45
2023-01-18T12:34:48.337Z,4.60
2023-01-18T12:41:04.912Z,4.05
2023-01-18T12:47:14.694Z,5.90
2023-01-18T12:53:21.714Z,5.13
2023-01-18T12:59:30.530Z,6.32
2023-01-18T13:05:37.513Z,6.07
2023-01-18T13:11:42.728Z,5.10
2023-01-18T13:17:51.722Z,4.00
2023-01-18T13:24:00.497Z,3.95
2023-01-18T13:30:09.647Z,3.65
2023-01-18T13:36:17.314Z,4.65
2023-01-18T13:42:40.726Z,3.67
2023-01-18T13:48:47.532Z,4.88
2023-01-18T13:55:06.660Z,3.65
2023-01-18T14:01:22.140Z,3.40
2023-01-18T14:07:25.663Z,3.70
2023-01-18T14:13:43.917Z,3.42
2023-01-18T14:20:04.001Z,3.60
2023-01-18T14:26:08.489Z,2.80
2023-01-18T14:32:14.432Z,3.80
2023-01-18T14:38:19.639Z,3.53
2023-01-18T14:44:24.555Z,3.40
2023-01-18T14:50:29.000Z,4.03
2023-01-18T14:56:34.923Z,6.40
2023-01-18T15:02:40.148Z,5.97
2023-01-18T15:08:44.485Z,4.93
2023-01-18T15:14:50.607Z,5.43
2023-01-18T15:20:56.260Z,4.95
2023-01-18T15:27:03.612Z,5.65
2023-01-18T15:33:08.588Z,5.03
2023-01-18T15:39:12.907Z,4.30
2023-01-18T15:45:19.009Z,7.32
2023-01-18T15:51:43.876Z,4.93
2023-01-18T15:57:53.558Z,5.33
2023-01-18T16:03:58.761Z,5.55
2023-01-18T16:10:32.032Z,6.43
2023-01-18T16:16:39.234Z,6.43
2023-01-18T16:22:43.918Z,6.43
2023-01-18T16:28:47.914Z,5.72
2023-01-18T16:34:53.330Z,4.75
2023-01-18T16:40:56.798Z,4.22
2023-01-18T16:47:00.502Z,4.88
2023-01-18T16:53:05.377Z,6.43
2023-01-18T16:59:26.623Z,5.15
2023-01-18T17:05:30.874Z,5.95
2023-01-18T17:11:35.875Z,5.30
2023-01-18T17:17:41.174Z,5.00
2023-01-18T17:23:45.387Z,5.05
2023-01-18T17:29:50.155Z,4.70
2023-01-18T17:35:55.135Z,5.80
2023-01-18T17:41:58.535Z,5.43
2023-01-18T17:48:03.761Z,5.18
2023-01-18T17:54:13.188Z,5.75
2023-01-18T18:00:23.875Z,8.93
2023-01-18T18:06:31.408Z,7.10
2023-01-18T18:12:35.858Z,10.40
2023-01-18T18:18:39.484Z,7.32
2023-01-18T18:24:44.765Z,7.60
2023-01-18T18:30:49.133Z,8.05
2023-01-18T18:36:52.733Z,7.28
2023-01-18T18:43:02.342Z,7.65
2023-01-18T18:49:07.055Z,7.72
2023-01-18T18:55:11.320Z,8.68
2023-01-18T19:01:22.191Z,8.45
2023-01-18T19:07:25.845Z,8.65
2023-01-18T19:13:29.341Z,8.45
2023-01-18T19:19:34.135Z,7.20
2023-01-18T19:25:39.086Z,7.65
2023-01-18T19:31:42.622Z,7.75
2023-01-18T19:37:48.395Z,7.65
2023-01-18T19:43:51.866Z,7.85
2023-01-18T19:49:57.419Z,7.70
2023-01-18T19:56:07.529Z,9.05
2023-01-18T20:02:11.695Z,7.55
2023-01-18T20:08:16.572Z,8.10
2023-01-18T20:14:24.379Z,7.95
2023-01-18T20:20:32.872Z,8.70
2023-01-18T20:26:39.533Z,8.90
2023-01-18T20:32:45.666Z,7.20
2023-01-18T20:38:49.033Z,7.75
2023-01-18T20:44:53.970Z,8.10
2023-01-18T20:51:00.344Z,9.30
2023-01-18T20:57:04.084Z,6.60
2023-01-18T21:03:07.837Z,6.18
2023-01-18T21:09:12.642Z,7.10
2023-01-18T21:15:16.307Z,7.00
2023-01-18T21:21:19.778Z,6.53
2023-01-18T21:27:27.271Z,6.55
2023-01-18T21:33:31.648Z,6.43
2023-01-18T21:39:35.092Z,6.63
2023-01-18T21:45:56.964Z,6.93
2023-01-18T21:52:18.905Z,5.97
2023-01-18T21:58:40.234Z,6.35
2023-01-18T22:05:01.028Z,6.43
2023-01-18T22:11:04.563Z,5.80
2023-01-18T22:17:08.681Z,5.60
2023-01-18T22:23:14.789Z,5.57
2023-01-18T22:29:18.280Z,4.50
2023-01-18T22:35:21.770Z,5.28
2023-01-18T22:41:27.742Z,5.60
2023-01-18T22:47:31.400Z,4.93
2023-01-18T22:53:35.866Z,4.88
2023-01-18T22:59:40.691Z,4.97
2023-01-18T23:05:44.061Z,5.05
2023-01-18T23:11:48.045Z,4.78
2023-01-18T23:17:52.800Z,5.03
2023-01-18T23:23:56.254Z,4.50
2023-01-18T23:29:59.684Z,4.43
2023-01-18T23:36:04.586Z,4.60
2023-01-18T23:42:25.481Z,5.18
2023-01-18T23:48:46.641Z,4.20
2023-01-18T23:54:51.465Z,4.88
